createdAt,value
2022-12-08T00:02:02.776Z,17.47
2022-12-08T00:04:51.005Z,17.80
2022-12-08T00:07:37.899Z,18.73
2022-12-08T00:10:25.252Z,16.70
2022-12-08T00:12:54.954Z,18.53
2022-12-08T00:15:22.967Z,16.20
2022-12-08T00:17:50.867Z,15.30
2022-12-08T00:20:18.899Z,16.80
2022-12-08T00:22:48.158Z,19.20
2022-12-08T00:25:16.293Z,17.00
2022-12-08T00:27:44.218Z,16.87
2022-12-08T00:30:15.455Z,15.60
2022-12-08T00:32:43.387Z,15.27
2022-12-08T00:35:11.444Z,17.10
2022-12-08T00:37:39.339Z,15.30
2022-12-08T00:40:10.191Z,14.70
2022-12-08T00:42:38.146Z,13.30
2022-12-08T00:45:08.230Z,13.43
2022-12-08T00:47:36.160Z,13.83
2022-12-08T00:50:05.102Z,12.10
2022-12-08T00:52:33.246Z,14.40
2022-12-08T00:55:01.146Z,11.13
2022-12-08T00:57:30.409Z,15.03
2022-12-08T00:59:58.314Z,13.93
2022-12-08T01:02:26.403Z,13.93
2022-12-08T01:04:54.321Z,13.37
2022-12-08T01:07:22.262Z,13.43
2022-12-08T01:09:50.166Z,15.47
2022-12-08T01:12:18.110Z,15.60
2022-12-08T01:14:47.540Z,17.93
2022-12-08T01:17:15.483Z,16.43
2022-12-08T01:19:43.393Z,16.70
2022-12-08T01:22:11.341Z,15.97
2022-12-08T01:24:39.306Z,18.57
2022-12-08T01:27:07.294Z,16.23
2022-12-08T01:29:35.514Z,17.57
2022-12-08T01:32:05.085Z,19.67
2022-12-08T01:34:33.240Z,17.87
2022-12-08T01:37:01.203Z,23.33
2022-12-08T01:39:29.920Z,18.07
2022-12-08T01:41:57.834Z,17.33
2022-12-08T01:44:52.813Z,20.63
2022-12-08T01:47:23.265Z,24.13
2022-12-08T01:49:51.176Z,21.27
2022-12-08T01:52:24.734Z,19.03
2022-12-08T01:55:01.333Z,19.23
2022-12-08T01:57:32.714Z,17.50
2022-12-08T02:00:05.091Z,18.97
2022-12-08T02:02:41.000Z,19.53
2022-12-08T02:05:10.102Z,20.47
2022-12-08T02:07:39.498Z,19.17
2022-12-08T02:10:08.413Z,19.80
2022-12-08T02:12:36.314Z,23.47
2022-12-08T02:15:05.728Z,18.97
2022-12-08T02:17:47.455Z,17.47
2022-12-08T02:20:35.409Z,20.93
2022-12-08T02:23:09.210Z,19.70
2022-12-08T02:25:53.874Z,19.10
2022-12-08T02:28:47.924Z,21.37
2022-12-08T02:31:29.287Z,20.80
2022-12-08T02:34:18.305Z,21.97
2022-12-08T02:36:54.010Z,19.80
2022-12-08T02:39:30.882Z,20.47
2022-12-08T02:42:08.071Z,16.40
2022-12-08T02:44:40.521Z,20.03
2022-12-08T02:47:11.531Z,21.17
2022-12-08T02:49:41.070Z,21.47
2022-12-08T02:52:24.842Z,22.10
2022-12-08T02:54:57.379Z,19.47
2022-12-08T02:57:42.080Z,16.53
2022-12-08T03:00:13.732Z,17.77
2022-12-08T03:02:49.383Z,17.50
2022-12-08T03:05:33.380Z,18.80
2022-12-08T03:08:08.909Z,16.10
2022-12-08T03:10:41.744Z,20.50
2022-12-08T03:13:14.078Z,18.30
2022-12-08T03:15:44.122Z,20.63
2022-12-08T03:18:15.917Z,21.80
2022-12-08T03:20:46.870Z,24.20
2022-12-08T03:23:17.000Z,20.77
2022-12-08T03:25:51.061Z,24.03
2022-12-08T03:28:19.125Z,17.97
2022-12-08T03:30:49.205Z,19.20
2022-12-08T03:33:24.118Z,21.37
2022-12-08T03:35:54.972Z,20.30
2022-12-08T03:38:23.541Z,24.77
2022-12-08T03:41:05.399Z,24.60
2022-12-08T03:43:33.341Z,24.37
2022-12-08T03:46:01.293Z,22.30
2022-12-08T03:48:29.601Z,29.10
2022-12-08T03:50:58.904Z,22.53
2022-12-08T03:53:26.801Z,20.93
2022-12-08T03:55:54.924Z,22.60
2022-12-08T03:58:22.873Z,20.73
2022-12-08T04:00:50.966Z,20.60
2022-12-08T04:03:19.058Z,20.43
2022-12-08T04:05:47.603Z,22.40
2022-12-08T04:08:16.996Z,22.83
2022-12-08T04:10:44.934Z,23.77
2022-12-08T04:13:12.830Z,24.00
2022-12-08T04:15:40.785Z,22.30
2022-12-08T04:18:08.799Z,24.50
2022-12-08T04:20:39.985Z,24.10
2022-12-08T04:23:08.329Z,20.33
2022-12-08T04:25:38.246Z,19.60
2022-12-08T04:28:07.051Z,24.17
2022-12-08T04:30:35.527Z,25.47
2022-12-08T04:33:03.635Z,24.87
2022-12-08T04:35:31.602Z,25.90
2022-12-08T04:37:59.541Z,26.03
2022-12-08T04:40:27.460Z,27.20
2022-12-08T04:42:56.753Z,25.87
2022-12-08T04:45:24.702Z,30.53
2022-12-08T04:47:52.616Z,27.77
2022-12-08T04:50:20.823Z,28.87
2022-12-08T04:52:48.955Z,23.13
2022-12-08T04:55:17.097Z,28.57
2022-12-08T04:57:45.081Z,25.30
2022-12-08T05:00:15.518Z,27.37
2022-12-08T05:02:43.522Z,24.40
2022-12-08T05:05:11.516Z,25.20
2022-12-08T05:07:39.573Z,29.27
2022-12-08T05:10:09.094Z,27.37
2022-12-08T05:12:37.054Z,33.77
2022-12-08T05:15:05.665Z,37.17
2022-12-08T05:17:34.953Z,31.90
2022-12-08T05:20:03.417Z,30.30
2022-12-08T05:22:31.657Z,28.67
2022-12-08T05:24:59.629Z,29.83
2022-12-08T05:27:27.815Z,28.40
2022-12-08T05:29:55.731Z,26.83
2022-12-08T05:32:23.699Z,30.23
2022-12-08T05:34:53.087Z,26.60
2022-12-08T05:37:21.048Z,27.07
2022-12-08T05:39:48.954Z,28.37
2022-12-08T05:42:21.760Z,29.20
2022-12-08T05:44:52.605Z,26.27
2022-12-08T05:47:20.890Z,32.87
2022-12-08T05:49:49.166Z,29.67
2022-12-08T05:52:18.971Z,30.97
2022-12-08T05:54:46.913Z,28.70
2022-12-08T05:57:14.841Z,32.20
2022-12-08T05:59:42.864Z,27.30
2022-12-08T06:02:11.047Z,28.83
2022-12-08T06:04:39.207Z,33.47
2022-12-08T06:07:09.641Z,33.27
2022-12-08T06:09:41.209Z,29.83
2022-12-08T06:12:11.645Z,27.30
2022-12-08T06:14:39.845Z,32.00
2022-12-08T06:17:08.008Z,33.23
2022-12-08T06:19:35.982Z,30.47
2022-12-08T06:22:04.005Z,31.60
2022-12-08T06:24:31.995Z,28.13
2022-12-08T06:27:01.279Z,31.03
2022-12-08T06:29:29.174Z,41.63
2022-12-08T06:31:57.277Z,33.23
2022-12-08T06:34:25.234Z,31.90
2022-12-08T06:36:53.230Z,29.73
2022-12-08T06:39:21.153Z,32.13
2022-12-08T06:42:06.389Z,34.47
2022-12-08T06:44:36.053Z,35.50
2022-12-08T06:47:03.944Z,33.43
2022-12-08T06:49:31.966Z,36.40
2022-12-08T06:51:59.915Z,33.30
2022-12-08T06:54:27.948Z,34.50
2022-12-08T06:56:56.050Z,36.80
2022-12-08T06:59:25.994Z,39.00
2022-12-08T07:01:55.321Z,40.07
2022-12-08T07:04:23.502Z,39.83
2022-12-08T07:06:51.709Z,39.50
2022-12-08T07:09:19.667Z,39.63
2022-12-08T07:11:47.574Z,45.33
2022-12-08T07:14:15.478Z,43.10
2022-12-08T07:16:43.441Z,33.80
2022-12-08T07:19:13.309Z,33.03
2022-12-08T07:21:41.216Z,36.70
2022-12-08T07:24:09.839Z,49.80
2022-12-08T07:26:38.013Z,37.90
2022-12-08T07:29:05.914Z,42.23
2022-12-08T07:31:34.272Z,35.77
2022-12-08T07:34:02.305Z,32.97
2022-12-08T07:36:32.651Z,36.07
2022-12-08T07:39:01.077Z,40.10
2022-12-08T07:41:33.862Z,33.37
2022-12-08T07:44:01.897Z,32.27
2022-12-08T07:46:30.001Z,39.47
2022-12-08T07:48:58.801Z,31.10
2022-12-08T07:51:27.064Z,32.10
2022-12-08T07:53:56.316Z,35.80
2022-12-08T07:56:24.963Z,30.30
2022-12-08T07:58:56.516Z,30.83
2022-12-08T08:01:27.383Z,34.53
2022-12-08T08:03:57.418Z,33.33
2022-12-08T08:06:25.721Z,31.83
2022-12-08T08:08:53.821Z,32.90
2022-12-08T08:11:23.514Z,30.83
2022-12-08T08:13:52.240Z,30.23
2022-12-08T08:16:21.357Z,35.13
2022-12-08T08:18:50.247Z,32.00
2022-12-08T08:24:08.593Z,30.97
2022-12-08T08:26:38.235Z,28.00
2022-12-08T08:29:06.173Z,33.67
2022-12-08T08:31:34.118Z,34.80
2022-12-08T08:34:06.036Z,31.77
2022-12-08T08:36:34.422Z,36.13
2022-12-08T08:39:02.469Z,47.23
2022-12-08T08:41:30.439Z,34.87
2022-12-08T08:43:59.731Z,29.87
2022-12-08T08:46:27.696Z,45.33
2022-12-08T08:48:55.695Z,95.13
2022-12-08T08:51:24.379Z,63.77
2022-12-08T08:53:52.357Z,42.17
2022-12-08T08:56:21.028Z,42.57
2022-12-08T08:58:49.707Z,39.20
2022-12-08T09:01:21.271Z,28.93
2022-12-08T09:03:49.890Z,30.07
2022-12-08T09:06:18.583Z,34.87
2022-12-08T09:08:47.270Z,37.67
2022-12-08T09:11:15.709Z,34.53
2022-12-08T09:13:43.691Z,33.00
2022-12-08T09:16:13.099Z,29.00
2022-12-08T09:18:42.423Z,29.87
2022-12-08T09:21:13.047Z,28.70
2022-12-08T09:23:41.581Z,31.13
2022-12-08T09:26:09.842Z,29.17
2022-12-08T09:28:37.948Z,29.53
2022-12-08T09:31:06.598Z,29.43
2022-12-08T09:33:34.584Z,31.23
2022-12-08T09:36:05.014Z,41.00
2022-12-08T09:38:33.364Z,35.10
2022-12-08T09:41:03.255Z,32.40
2022-12-08T09:43:59.540Z,30.00
2022-12-08T09:46:31.510Z,33.43
2022-12-08T09:49:01.843Z,34.70
2022-12-08T09:51:37.389Z,31.83
2022-12-08T09:54:08.711Z,33.00
2022-12-08T09:56:38.230Z,33.07
2022-12-08T09:59:17.184Z,34.60
2022-12-08T10:01:45.206Z,35.77
2022-12-08T10:04:21.720Z,31.83
2022-12-08T10:07:00.278Z,31.77
2022-12-08T10:09:37.109Z,28.70
2022-12-08T10:12:13.389Z,34.33
2022-12-08T10:14:44.680Z,33.47
2022-12-08T10:17:19.516Z,33.60
2022-12-08T10:19:48.628Z,31.97
2022-12-08T10:22:22.256Z,34.60
2022-12-08T10:24:58.736Z,50.97
2022-12-08T10:27:27.140Z,47.17
2022-12-08T10:29:55.151Z,44.30
2022-12-08T10:32:25.324Z,53.23
2022-12-08T10:35:02.685Z,50.90
2022-12-08T10:37:32.019Z,47.87
2022-12-08T10:40:01.528Z,51.47
2022-12-08T10:42:36.919Z,41.67
2022-12-08T10:45:26.730Z,44.03
2022-12-08T10:48:02.621Z,39.57
2022-12-08T10:50:33.786Z,35.43
2022-12-08T10:53:12.374Z,42.83
2022-12-08T10:55:45.625Z,39.63
2022-12-08T10:58:28.145Z,31.87
2022-12-08T11:00:59.564Z,28.70
2022-12-08T11:03:33.912Z,28.97
2022-12-08T11:06:11.103Z,32.77
2022-12-08T11:08:49.949Z,33.53
2022-12-08T11:11:20.333Z,32.07
2022-12-08T11:13:52.615Z,30.80
2022-12-08T11:16:21.225Z,33.63
2022-12-08T11:18:57.730Z,25.90
2022-12-08T11:21:36.672Z,35.27
2022-12-08T11:24:23.062Z,27.80
2022-12-08T11:26:54.881Z,30.50
2022-12-08T11:29:23.205Z,28.17
2022-12-08T11:31:55.811Z,23.23
2022-12-08T11:34:31.995Z,23.83
2022-12-08T11:37:00.668Z,28.00
2022-12-08T11:39:35.326Z,28.60
2022-12-08T11:42:04.919Z,31.23
2022-12-08T11:44:39.780Z,26.20
2022-12-08T11:47:14.276Z,23.90
2022-12-08T11:49:43.839Z,24.67
2022-12-08T11:52:22.881Z,23.30
2022-12-08T11:54:59.130Z,21.73
2022-12-08T11:57:29.070Z,17.50
2022-12-08T11:59:58.959Z,16.30
2022-12-08T12:02:29.780Z,11.80
2022-12-08T12:05:04.631Z,14.47
2022-12-08T12:07:45.910Z,11.70
2022-12-08T12:10:38.386Z,14.80
2022-12-08T12:13:14.668Z,13.80
2022-12-08T12:16:18.021Z,12.40
2022-12-08T12:18:48.206Z,14.73
2022-12-08T12:21:20.198Z,14.67
2022-12-08T12:23:54.100Z,22.37
2022-12-08T12:26:25.835Z,11.47
2022-12-08T12:28:58.080Z,18.57
2022-12-08T12:31:29.615Z,21.43
2022-12-08T12:34:07.367Z,11.30
2022-12-08T12:36:49.576Z,10.63
2022-12-08T12:39:21.162Z,9.40
2022-12-08T12:41:54.868Z,8.43
2022-12-08T12:44:38.926Z,10.93
2022-12-08T12:47:12.802Z,4.70
2022-12-08T12:50:15.735Z,4.57
2022-12-08T12:52:46.802Z,6.03
2022-12-08T12:55:50.614Z,8.10
2022-12-08T12:58:42.756Z,7.60
2022-12-08T13:01:49.792Z,5.77
2022-12-08T13:04:18.646Z,15.30
2022-12-08T13:06:50.251Z,5.50
2022-12-08T13:09:23.949Z,7.40
2022-12-08T13:11:55.805Z,20.97
2022-12-08T13:14:37.012Z,9.73
2022-12-08T13:17:11.372Z,5.97
2022-12-08T13:19:41.355Z,16.53
2022-12-08T13:22:49.024Z,6.60
2022-12-08T13:25:58.654Z,6.33
2022-12-08T13:28:29.340Z,6.33
2022-12-08T13:31:00.476Z,9.40
2022-12-08T13:33:32.082Z,6.97
2022-12-08T13:36:19.678Z,7.73
2022-12-08T13:38:50.473Z,9.23
2022-12-08T13:41:21.468Z,7.83
2022-12-08T13:44:50.434Z,18.40
2022-12-08T13:47:24.760Z,12.60
2022-12-08T13:56:51.542Z,10.20
2022-12-08T13:58:18.920Z,18.23
2022-12-08T14:00:57.566Z,10.13
2022-12-08T14:03:27.510Z,5.90
2022-12-08T14:06:12.213Z,8.13
2022-12-08T14:09:05.011Z,10.93
2022-12-08T14:11:35.990Z,17.60
2022-12-08T14:14:07.054Z,12.40
2022-12-08T14:16:38.724Z,11.23
2022-12-08T14:19:18.013Z,19.70
2022-12-08T14:21:54.557Z,9.20
2022-12-08T14:24:24.059Z,11.57
2022-12-08T14:26:55.279Z,17.40
2022-12-08T14:29:39.676Z,11.63
2022-12-08T14:32:24.546Z,20.27
2022-12-08T14:34:56.685Z,10.90
2022-12-08T14:37:26.889Z,9.73
2022-12-08T14:39:59.580Z,30.97
2022-12-08T14:42:28.740Z,33.70
2022-12-08T14:45:02.901Z,33.10
2022-12-08T14:47:33.357Z,17.80
2022-12-08T14:50:03.991Z,11.80
2022-12-08T14:52:32.229Z,15.73
2022-12-08T14:55:00.370Z,14.90
2022-12-08T14:57:36.264Z,14.73
2022-12-08T15:00:21.309Z,14.40
2022-12-08T15:02:49.483Z,13.20
2022-12-08T15:05:21.638Z,14.60
2022-12-08T15:07:52.352Z,16.47
2022-12-08T15:10:27.428Z,12.67
2022-12-08T15:13:05.715Z,18.40
2022-12-08T15:15:46.879Z,60.03
2022-12-08T15:18:17.627Z,56.07
2022-12-08T15:20:50.658Z,95.63
2022-12-08T15:23:26.684Z,92.70
2022-12-08T15:25:55.465Z,70.80
2022-12-08T15:28:29.425Z,33.60
2022-12-08T15:30:58.672Z,22.67
2022-12-08T15:33:27.125Z,22.40
2022-12-08T15:35:56.431Z,27.20
2022-12-08T15:38:26.239Z,29.50
2022-12-08T15:40:55.326Z,10.40
2022-12-08T15:43:24.197Z,8.50
2022-12-08T15:46:01.155Z,11.63
2022-12-08T15:48:31.131Z,12.57
2022-12-08T15:51:00.612Z,10.00
2022-12-08T15:53:28.562Z,8.97
2022-12-08T15:58:53.441Z,7.60
2022-12-08T16:01:22.052Z,16.70
2022-12-08T16:09:32.540Z,29.47
2022-12-08T16:12:18.147Z,22.47
2022-12-08T16:17:34.966Z,12.80
2022-12-08T16:20:03.781Z,9.00
2022-12-08T16:25:23.181Z,11.23
2022-12-08T16:28:08.299Z,8.10
2022-12-08T16:30:40.843Z,7.63
2022-12-08T16:33:09.258Z,12.50
2022-12-08T16:35:37.242Z,8.60
2022-12-08T16:38:06.641Z,9.33
2022-12-08T16:40:55.853Z,7.93
2022-12-08T16:43:22.790Z,19.90
2022-12-08T16:45:52.777Z,11.53
2022-12-08T16:48:22.432Z,6.53
2022-12-08T16:50:50.425Z,13.80
2022-12-08T16:53:19.964Z,11.00
2022-12-08T16:55:48.728Z,8.27
2022-12-08T16:58:18.294Z,10.77
2022-12-08T17:00:46.790Z,5.50
2022-12-08T17:03:16.590Z,8.27
2022-12-08T17:05:46.154Z,12.37
2022-12-08T17:08:14.166Z,10.07
2022-12-08T17:10:43.835Z,10.20
2022-12-08T17:13:13.005Z,23.70
2022-12-08T17:15:41.523Z,90.67
2022-12-08T17:18:09.554Z,74.17
2022-12-08T17:20:37.463Z,41.30
2022-12-08T17:23:05.466Z,21.23
2022-12-08T17:25:33.414Z,20.47
2022-12-08T17:28:02.661Z,21.47
2022-12-08T17:30:30.669Z,15.43
2022-12-08T17:32:58.632Z,28.40
2022-12-08T17:35:26.586Z,23.47
2022-12-08T17:37:54.496Z,52.60
2022-12-08T17:40:25.552Z,18.90
2022-12-08T17:42:56.831Z,20.10
2022-12-08T17:45:26.194Z,26.67
2022-12-08T17:47:54.304Z,13.37
2022-12-08T17:50:22.298Z,12.90
2022-12-08T17:52:50.930Z,17.70
2022-12-08T17:55:18.929Z,14.60
2022-12-08T17:57:46.829Z,10.77
2022-12-08T18:00:15.719Z,11.80
2022-12-08T18:02:45.120Z,14.07
2022-12-08T18:05:13.438Z,11.00
2022-12-08T18:07:41.479Z,13.40
2022-12-08T18:10:10.266Z,10.43
2022-12-08T18:12:39.506Z,9.30
2022-12-08T18:15:09.653Z,7.97
2022-12-08T18:17:37.685Z,9.60
2022-12-08T18:20:08.766Z,10.93
2022-12-08T18:22:36.805Z,12.37
2022-12-08T18:25:06.727Z,11.30
2022-12-08T18:27:39.965Z,9.37
2022-12-08T18:30:14.823Z,10.97
2022-12-08T18:32:42.867Z,7.40
2022-12-08T18:35:13.465Z,9.53
2022-12-08T18:37:42.922Z,9.23
2022-12-08T18:40:12.418Z,8.70
2022-12-08T18:42:40.673Z,11.93
2022-12-08T18:45:09.539Z,11.90
2022-12-08T18:47:40.002Z,9.57
2022-12-08T18:50:09.955Z,10.17
2022-12-08T18:52:39.583Z,9.87
2022-12-08T18:55:08.518Z,10.50
2022-12-08T18:57:38.579Z,7.63
2022-12-08T19:00:09.076Z,11.67
2022-12-08T19:02:38.758Z,17.83
2022-12-08T19:05:07.566Z,10.90
2022-12-08T19:07:35.639Z,12.30
2022-12-08T19:10:06.499Z,12.90
2022-12-08T19:12:34.697Z,10.93
2022-12-08T19:15:02.958Z,10.67
2022-12-08T19:17:31.074Z,15.00
2022-12-08T19:19:59.068Z,21.30
2022-12-08T19:22:28.707Z,19.87
2022-12-08T19:24:56.908Z,20.57
2022-12-08T19:27:26.215Z,27.33
2022-12-08T19:29:54.581Z,24.60
2022-12-08T19:32:22.787Z,19.50
2022-12-08T19:34:50.950Z,18.63
2022-12-08T19:37:18.993Z,30.20
2022-12-08T19:40:06.895Z,34.47
2022-12-08T19:42:54.021Z,19.63
2022-12-08T19:45:23.327Z,15.67
2022-12-08T19:47:51.382Z,15.50
2022-12-08T19:50:37.840Z,13.17
2022-12-08T19:53:07.181Z,14.10
2022-12-08T19:55:35.438Z,11.80
2022-12-08T19:58:05.402Z,12.67
2022-12-08T20:00:34.445Z,12.33
2022-12-08T20:03:03.554Z,17.50
2022-12-08T20:05:32.850Z,19.27
2022-12-08T20:08:01.054Z,19.53
2022-12-08T20:10:32.038Z,17.67
2022-12-08T20:13:13.915Z,14.50
2022-12-08T20:15:43.380Z,11.63
2022-12-08T20:18:11.577Z,15.27
2022-12-08T20:20:40.515Z,18.20
2022-12-08T20:23:08.865Z,18.40
2022-12-08T20:25:39.637Z,30.20
2022-12-08T20:28:07.893Z,21.20
2022-12-08T20:30:36.365Z,18.93
2022-12-08T20:33:05.752Z,12.83
2022-12-08T20:35:33.688Z,14.00
2022-12-08T20:38:01.648Z,14.07
2022-12-08T20:40:29.776Z,11.80
2022-12-08T20:42:57.838Z,17.20
2022-12-08T20:45:25.877Z,16.53
2022-12-08T20:47:53.888Z,14.53
2022-12-08T20:50:23.355Z,18.47
2022-12-08T20:52:51.466Z,19.17
2022-12-08T20:55:19.634Z,16.57
2022-12-08T20:57:47.703Z,21.13
2022-12-08T21:00:18.035Z,21.63
2022-12-08T21:02:50.874Z,26.53
2022-12-08T21:05:24.350Z,36.10
2022-12-08T21:07:52.407Z,43.33
2022-12-08T21:10:20.982Z,37.00
2022-12-08T21:12:49.219Z,22.10
2022-12-08T21:15:17.388Z,23.73
2022-12-08T21:17:45.369Z,26.23
2022-12-08T21:20:13.723Z,28.00
2022-12-08T21:22:43.018Z,25.90
2022-12-08T21:25:11.317Z,24.13
2022-12-08T21:27:39.457Z,32.83
2022-12-08T21:30:11.807Z,25.97
2022-12-08T21:32:40.490Z,22.70
2022-12-08T21:35:10.036Z,23.20
2022-12-08T21:37:38.359Z,23.30
2022-12-08T21:40:09.353Z,26.13
2022-12-08T21:42:46.842Z,20.97
2022-12-08T21:45:17.237Z,35.20
2022-12-08T21:47:49.457Z,36.53
2022-12-08T21:50:18.525Z,32.83
2022-12-08T21:52:49.988Z,31.67
2022-12-08T21:55:23.836Z,27.20
2022-12-08T21:57:51.910Z,28.40
2022-12-08T22:00:21.289Z,26.30
2022-12-08T22:02:49.541Z,23.50
2022-12-08T22:05:17.724Z,23.70
2022-12-08T22:07:45.940Z,23.13
2022-12-08T22:10:14.124Z,24.90
2022-12-08T22:12:43.593Z,23.70
2022-12-08T22:15:12.723Z,25.00
2022-12-08T22:17:42.434Z,27.67
2022-12-08T22:20:15.039Z,23.93
2022-12-08T22:22:43.112Z,28.10
2022-12-08T22:25:12.748Z,26.20
2022-12-08T22:27:41.472Z,27.50
2022-12-08T22:30:12.537Z,31.63
2022-12-08T22:32:41.817Z,31.97
2022-12-08T22:35:10.792Z,29.67
2022-12-08T22:37:38.784Z,25.17
2022-12-08T22:40:10.108Z,28.20
2022-12-08T22:42:38.191Z,26.90
2022-12-08T22:45:06.963Z,23.90
2022-12-08T22:47:36.329Z,38.30
2022-12-08T22:50:06.019Z,25.30
2022-12-08T22:52:34.584Z,18.70
2022-12-08T22:55:02.531Z,18.10
2022-12-08T22:57:30.516Z,27.53
2022-12-08T22:59:58.561Z,21.03
2022-12-08T23:02:26.590Z,23.77
2022-12-08T23:04:58.024Z,23.43
2022-12-08T23:07:26.412Z,20.03
2022-12-08T23:09:54.565Z,22.00
2022-12-08T23:12:22.812Z,20.20
2022-12-08T23:14:50.917Z,26.10
2022-12-08T23:17:19.105Z,18.97
2022-12-08T23:19:47.336Z,20.97
2022-12-08T23:22:16.776Z,17.30
2022-12-08T23:24:45.053Z,22.47
2022-12-08T23:27:12.969Z,21.07
2022-12-08T23:29:41.292Z,20.80
2022-12-08T23:32:09.546Z,25.63
2022-12-08T23:34:37.628Z,26.40
2022-12-08T23:37:05.561Z,20.47
2022-12-08T23:39:34.888Z,20.17
2022-12-08T23:42:03.111Z,19.20
2022-12-08T23:44:31.486Z,23.77
2022-12-08T23:46:59.599Z,23.57
2022-12-08T23:49:27.741Z,28.63
2022-12-08T23:51:55.703Z,23.97
2022-12-08T23:54:23.867Z,31.70
2022-12-08T23:56:53.517Z,36.00
2022-12-08T23:59:21.709Z,34.33
